sensor_id;sensor_type;location;lat;lon;timestamp;temperature;humidity
26336;DHT22;14047;50.936;4.654;2022-08-24T00:00:49;21.00;99.90
26336;DHT22;14047;50.936;4.654;2022-08-24T00:03:15;21.00;99.90
26336;DHT22;14047;50.936;4.654;2022-08-24T00:05:40;20.90;99.90
26336;DHT22;14047;50.936;4.654;2022-08-24T00:08:06;20.80;99.90
26336;DHT22;14047;50.936;4.654;2022-08-24T00:10:32;20.80;99.90
26336;DHT22;14047;50.936;4.654;2022-08-24T00:12:57;20.80;99.90
26336;DHT22;14047;50.936;4.654;2022-08-24T00:15:23;20.70;99.90
26336;DHT22;14047;50.936;4.654;2022-08-24T00:17:49;20.60;99.90
26336;DHT22;14047;50.936;4.654;2022-08-24T00:20:15;20.70;99.90
26336;DHT22;14047;50.936;4.654;2022-08-24T00:22:41;20.70;99.90
26336;DHT22;14047;50.936;4.654;2022-08-24T00:25:09;20.70;99.90
26336;DHT22;14047;50.936;4.654;2022-08-24T00:27:36;20.70;99.90
26336;DHT22;14047;50.936;4.654;2022-08-24T00:30:05;20.70;99.90
26336;DHT22;14047;50.936;4.654;2022-08-24T00:32:31;20.70;99.90
26336;DHT22;14047;50.936;4.654;2022-08-24T00:34:56;20.60;99.90
26336;DHT22;14047;50.936;4.654;2022-08-24T00:37:22;20.60;99.90
26336;DHT22;14047;50.936;4.654;2022-08-24T00:39:49;20.40;99.90
26336;DHT22;14047;50.936;4.654;2022-08-24T00:42:14;20.30;99.90
26336;DHT22;14047;50.936;4.654;2022-08-24T00:44:40;20.40;99.90
26336;DHT22;14047;50.936;4.654;2022-08-24T00:47:13;20.40;99.90
26336;DHT22;14047;50.936;4.654;2022-08-24T00:49:45;20.40;99.90
26336;DHT22;14047;50.936;4.654;2022-08-24T00:52:26;20.40;99.90
26336;DHT22;14047;50.936;4.654;2022-08-24T00:54:56;20.50;99.90
26336;DHT22;14047;50.936;4.654;2022-08-24T00:57:26;20.50;99.90
26336;DHT22;14047;50.936;4.654;2022-08-24T00:59:58;20.40;99.90
26336;DHT22;14047;50.936;4.654;2022-08-24T01:02:30;20.30;99.90
26336;DHT22;14047;50.936;4.654;2022-08-24T01:04:59;20.30;99.90
26336;DHT22;14047;50.936;4.654;2022-08-24T01:07:27;20.20;99.90
26336;DHT22;14047;50.936;4.654;2022-08-24T01:09:56;20.20;99.90
26336;DHT22;14047;50.936;4.654;2022-08-24T01:12:23;20.30;99.90
26336;DHT22;14047;50.936;4.654;2022-08-24T01:14:49;20.30;99.90
26336;DHT22;14047;50.936;4.654;2022-08-24T01:17:16;20.30;99.90
26336;DHT22;14047;50.936;4.654;2022-08-24T01:20:02;20.30;99.90
26336;DHT22;14047;50.936;4.654;2022-08-24T01:25:33;20.20;99.90
26336;DHT22;14047;50.936;4.654;2022-08-24T01:28:06;20.20;99.90
26336;DHT22;14047;50.936;4.654;2022-08-24T01:30:33;20.10;99.90
26336;DHT22;14047;50.936;4.654;2022-08-24T01:33:01;20.00;99.90
26336;DHT22;14047;50.936;4.654;2022-08-24T01:35:29;20.00;99.90
26336;DHT22;14047;50.936;4.654;2022-08-24T01:37:57;20.00;99.90
26336;DHT22;14047;50.936;4.654;2022-08-24T01:40:33;20.00;99.90
26336;DHT22;14047;50.936;4.654;2022-08-24T01:43:00;20.00;99.90
26336;DHT22;14047;50.936;4.654;2022-08-24T01:45:26;20.00;99.90
26336;DHT22;14047;50.936;4.654;2022-08-24T01:47:52;20.00;99.90
26336;DHT22;14047;50.936;4.654;2022-08-24T01:50:17;20.00;99.90
26336;DHT22;14047;50.936;4.654;2022-08-24T01:52:43;20.00;99.90
26336;DHT22;14047;50.936;4.654;2022-08-24T01:55:12;19.90;99.90
26336;DHT22;14047;50.936;4.654;2022-08-24T01:57:39;19.90;99.90
26336;DHT22;14047;50.936;4.654;2022-08-24T02:00:08;20.00;99.90
26336;DHT22;14047;50.936;4.654;2022-08-24T02:02:34;19.90;99.90
26336;DHT22;14047;50.936;4.654;2022-08-24T02:05:00;19.80;99.90
26336;DHT22;14047;50.936;4.654;2022-08-24T02:07:26;19.70;99.90
26336;DHT22;14047;50.936;4.654;2022-08-24T02:09:54;19.70;99.90
26336;DHT22;14047;50.936;4.654;2022-08-24T02:12:20;19.60;99.90
26336;DHT22;14047;50.936;4.654;2022-08-24T02:14:45;19.60;99.90
26336;DHT22;14047;50.936;4.654;2022-08-24T02:17:11;19.60;99.90
26336;DHT22;14047;50.936;4.654;2022-08-24T02:19:37;19.60;99.90
26336;DHT22;14047;50.936;4.654;2022-08-24T02:22:03;19.60;99.90
26336;DHT22;14047;50.936;4.654;2022-08-24T02:24:31;19.50;99.90
26336;DHT22;14047;50.936;4.654;2022-08-24T02:26:58;19.50;99.90
26336;DHT22;14047;50.936;4.654;2022-08-24T02:29:23;19.50;99.90
26336;DHT22;14047;50.936;4.654;2022-08-24T02:31:49;19.50;99.90
26336;DHT22;14047;50.936;4.654;2022-08-24T02:34:16;19.50;99.90
26336;DHT22;14047;50.936;4.654;2022-08-24T02:36:41;19.50;99.90
26336;DHT22;14047;50.936;4.654;2022-08-24T02:39:08;19.40;99.90
26336;DHT22;14047;50.936;4.654;2022-08-24T02:41:35;19.40;99.90
26336;DHT22;14047;50.936;4.654;2022-08-24T02:44:01;19.40;99.90
26336;DHT22;14047;50.936;4.654;2022-08-24T02:46:28;19.40;99.90
26336;DHT22;14047;50.936;4.654;2022-08-24T02:48:55;19.50;99.90
26336;DHT22;14047;50.936;4.654;2022-08-24T02:51:31;19.50;99.90
26336;DHT22;14047;50.936;4.654;2022-08-24T02:53:58;19.60;99.90
26336;DHT22;14047;50.936;4.654;2022-08-24T02:56:25;19.50;99.90
26336;DHT22;14047;50.936;4.654;2022-08-24T02:58:51;19.50;99.90
26336;DHT22;14047;50.936;4.654;2022-08-24T03:01:17;19.50;99.90
26336;DHT22;14047;50.936;4.654;2022-08-24T03:03:44;19.50;99.90
26336;DHT22;14047;50.936;4.654;2022-08-24T03:06:10;19.40;99.90
26336;DHT22;14047;50.936;4.654;2022-08-24T03:08:36;19.40;99.90
26336;DHT22;14047;50.936;4.654;2022-08-24T03:11:04;19.40;99.90
26336;DHT22;14047;50.936;4.654;2022-08-24T03:13:30;19.50;99.90
26336;DHT22;14047;50.936;4.654;2022-08-24T03:15:57;19.30;99.90
26336;DHT22;14047;50.936;4.654;2022-08-24T03:18:24;19.30;99.90
26336;DHT22;14047;50.936;4.654;2022-08-24T03:20:52;19.30;99.90
26336;DHT22;14047;50.936;4.654;2022-08-24T03:23:18;19.30;99.90
26336;DHT22;14047;50.936;4.654;2022-08-24T03:25:44;19.20;99.90
26336;DHT22;14047;50.936;4.654;2022-08-24T03:28:10;19.20;99.90
26336;DHT22;14047;50.936;4.654;2022-08-24T03:30:37;19.30;99.90
26336;DHT22;14047;50.936;4.654;2022-08-24T03:33:04;19.20;99.90
26336;DHT22;14047;50.936;4.654;2022-08-24T03:35:30;19.20;99.90
26336;DHT22;14047;50.936;4.654;2022-08-24T03:37:56;19.10;99.90
26336;DHT22;14047;50.936;4.654;2022-08-24T03:40:21;19.20;99.90
26336;DHT22;14047;50.936;4.654;2022-08-24T03:42:48;19.20;99.90
26336;DHT22;14047;50.936;4.654;2022-08-24T03:45:14;19.20;99.90
26336;DHT22;14047;50.936;4.654;2022-08-24T03:47:40;19.20;99.90
26336;DHT22;14047;50.936;4.654;2022-08-24T03:50:07;19.20;99.90
26336;DHT22;14047;50.936;4.654;2022-08-24T03:52:34;19.20;99.90
26336;DHT22;14047;50.936;4.654;2022-08-24T03:55:01;19.10;99.90
26336;DHT22;14047;50.936;4.654;2022-08-24T03:57:27;19.10;99.90
26336;DHT22;14047;50.936;4.654;2022-08-24T03:59:53;19.10;99.90
26336;DHT22;14047;50.936;4.654;2022-08-24T04:02:19;19.10;99.90
26336;DHT22;14047;50.936;4.654;2022-08-24T04:04:45;19.10;99.90
26336;DHT22;14047;50.936;4.654;2022-08-24T04:07:10;19.00;99.90
26336;DHT22;14047;50.936;4.654;2022-08-24T04:09:36;18.90;99.90
26336;DHT22;14047;50.936;4.654;2022-08-24T04:12:02;18.90;99.90
26336;DHT22;14047;50.936;4.654;2022-08-24T04:14:28;18.90;99.90
26336;DHT22;14047;50.936;4.654;2022-08-24T04:16:53;18.90;99.90
26336;DHT22;14047;50.936;4.654;2022-08-24T04:19:19;18.90;99.90
26336;DHT22;14047;50.936;4.654;2022-08-24T04:21:45;18.90;99.90
26336;DHT22;14047;50.936;4.654;2022-08-24T04:24:11;18.90;99.90
26336;DHT22;14047;50.936;4.654;2022-08-24T04:26:39;18.90;99.90
26336;DHT22;14047;50.936;4.654;2022-08-24T04:29:06;19.00;99.90
26336;DHT22;14047;50.936;4.654;2022-08-24T04:31:35;19.00;99.90
26336;DHT22;14047;50.936;4.654;2022-08-24T04:34:00;19.00;99.90
26336;DHT22;14047;50.936;4.654;2022-08-24T04:36:26;19.10;99.90
26336;DHT22;14047;50.936;4.654;2022-08-24T04:38:52;19.00;99.90
26336;DHT22;14047;50.936;4.654;2022-08-24T04:41:17;19.00;99.90
26336;DHT22;14047;50.936;4.654;2022-08-24T04:43:47;19.00;99.90
26336;DHT22;14047;50.936;4.654;2022-08-24T04:46:15;19.00;99.90
26336;DHT22;14047;50.936;4.654;2022-08-24T04:48:43;19.00;99.90
26336;DHT22;14047;50.936;4.654;2022-08-24T04:51:10;19.00;99.90
26336;DHT22;14047;50.936;4.654;2022-08-24T04:53:36;18.90;99.90
26336;DHT22;14047;50.936;4.654;2022-08-24T04:56:03;18.90;99.90
26336;DHT22;14047;50.936;4.654;2022-08-24T04:58:29;19.00;99.90
26336;DHT22;14047;50.936;4.654;2022-08-24T05:00:55;19.00;99.90
26336;DHT22;14047;50.936;4.654;2022-08-24T05:03:21;19.00;99.90
26336;DHT22;14047;50.936;4.654;2022-08-24T05:05:49;19.10;99.90
26336;DHT22;14047;50.936;4.654;2022-08-24T05:08:17;19.00;99.90
26336;DHT22;14047;50.936;4.654;2022-08-24T05:10:46;18.90;99.90
26336;DHT22;14047;50.936;4.654;2022-08-24T05:13:13;18.90;99.90
26336;DHT22;14047;50.936;4.654;2022-08-24T05:15:46;18.90;99.90
26336;DHT22;14047;50.936;4.654;2022-08-24T05:18:13;18.90;99.90
26336;DHT22;14047;50.936;4.654;2022-08-24T05:20:41;18.90;99.90
26336;DHT22;14047;50.936;4.654;2022-08-24T05:23:06;18.90;99.90
26336;DHT22;14047;50.936;4.654;2022-08-24T05:25:32;19.00;99.90
26336;DHT22;14047;50.936;4.654;2022-08-24T05:27:58;19.00;99.90
26336;DHT22;14047;50.936;4.654;2022-08-24T05:30:23;19.00;99.90
26336;DHT22;14047;50.936;4.654;2022-08-24T05:32:49;19.10;99.90
26336;DHT22;14047;50.936;4.654;2022-08-24T05:35:15;19.10;99.90
26336;DHT22;14047;50.936;4.654;2022-08-24T05:37:41;19.10;99.90
26336;DHT22;14047;50.936;4.654;2022-08-24T05:40:09;19.30;99.90
26336;DHT22;14047;50.936;4.654;2022-08-24T05:42:37;19.40;99.90
26336;DHT22;14047;50.936;4.654;2022-08-24T05:45:04;19.50;99.90
26336;DHT22;14047;50.936;4.654;2022-08-24T05:47:30;19.60;99.90
26336;DHT22;14047;50.936;4.654;2022-08-24T05:49:55;19.70;99.90
26336;DHT22;14047;50.936;4.654;2022-08-24T05:52:22;19.80;99.90
26336;DHT22;14047;50.936;4.654;2022-08-24T05:54:56;19.90;99.90
26336;DHT22;14047;50.936;4.654;2022-08-24T05:57:23;20.00;99.90
26336;DHT22;14047;50.936;4.654;2022-08-24T05:59:49;20.20;99.90
26336;DHT22;14047;50.936;4.654;2022-08-24T06:02:16;20.30;99.90
26336;DHT22;14047;50.936;4.654;2022-08-24T06:04:42;20.40;99.90
26336;DHT22;14047;50.936;4.654;2022-08-24T06:07:10;20.50;99.90
26336;DHT22;14047;50.936;4.654;2022-08-24T06:09:37;20.70;99.90
26336;DHT22;14047;50.936;4.654;2022-08-24T06:12:04;20.80;99.90
26336;DHT22;14047;50.936;4.654;2022-08-24T06:14:30;21.00;99.90
26336;DHT22;14047;50.936;4.654;2022-08-24T06:16:55;21.20;99.90
26336;DHT22;14047;50.936;4.654;2022-08-24T06:19:21;21.30;99.90
26336;DHT22;14047;50.936;4.654;2022-08-24T06:21:49;21.40;99.90
26336;DHT22;14047;50.936;4.654;2022-08-24T06:24:15;21.50;99.90
26336;DHT22;14047;50.936;4.654;2022-08-24T06:26:42;21.70;99.90
26336;DHT22;14047;50.936;4.654;2022-08-24T06:29:27;21.80;99.90
26336;DHT22;14047;50.936;4.654;2022-08-24T06:31:52;22.00;99.90
26336;DHT22;14047;50.936;4.654;2022-08-24T06:34:18;22.20;99.90
26336;DHT22;14047;50.936;4.654;2022-08-24T06:36:45;22.30;99.90
26336;DHT22;14047;50.936;4.654;2022-08-24T06:39:11;22.50;99.90
26336;DHT22;14047;50.936;4.654;2022-08-24T06:41:37;22.60;99.90
26336;DHT22;14047;50.936;4.654;2022-08-24T06:44:04;22.80;99.90
26336;DHT22;14047;50.936;4.654;2022-08-24T06:46:30;22.60;99.90
26336;DHT22;14047;50.936;4.654;2022-08-24T06:48:56;22.70;99.90
26336;DHT22;14047;50.936;4.654;2022-08-24T06:51:22;22.70;99.90
26336;DHT22;14047;50.936;4.654;2022-08-24T06:53:49;22.70;99.90
26336;DHT22;14047;50.936;4.654;2022-08-24T06:56:16;22.90;99.90
26336;DHT22;14047;50.936;4.654;2022-08-24T06:58:43;23.00;99.90
26336;DHT22;14047;50.936;4.654;2022-08-24T07:01:17;22.80;99.90
26336;DHT22;14047;50.936;4.654;2022-08-24T07:03:44;22.70;99.90
26336;DHT22;14047;50.936;4.654;2022-08-24T07:06:12;22.40;99.90
26336;DHT22;14047;50.936;4.654;2022-08-24T07:08:39;22.40;99.90
26336;DHT22;14047;50.936;4.654;2022-08-24T07:11:07;22.70;99.90
26336;DHT22;14047;50.936;4.654;2022-08-24T07:13:34;22.80;99.90
26336;DHT22;14047;50.936;4.654;2022-08-24T07:15:59;22.90;99.90
26336;DHT22;14047;50.936;4.654;2022-08-24T07:18:25;23.10;99.90
26336;DHT22;14047;50.936;4.654;2022-08-24T07:20:51;23.30;99.90
26336;DHT22;14047;50.936;4.654;2022-08-24T07:23:17;23.50;99.90
26336;DHT22;14047;50.936;4.654;2022-08-24T07:25:44;23.60;99.90
26336;DHT22;14047;50.936;4.654;2022-08-24T07:28:11;23.70;99.90
26336;DHT22;14047;50.936;4.654;2022-08-24T07:30:38;23.80;99.90
26336;DHT22;14047;50.936;4.654;2022-08-24T07:33:04;24.00;99.90
26336;DHT22;14047;50.936;4.654;2022-08-24T07:35:31;24.20;99.90
26336;DHT22;14047;50.936;4.654;2022-08-24T07:37:59;24.40;99.90
26336;DHT22;14047;50.936;4.654;2022-08-24T07:40:27;24.50;99.90
26336;DHT22;14047;50.936;4.654;2022-08-24T07:42:54;24.70;99.90
26336;DHT22;14047;50.936;4.654;2022-08-24T07:45:21;24.80;99.90
26336;DHT22;14047;50.936;4.654;2022-08-24T07:47:47;25.10;99.90
26336;DHT22;14047;50.936;4.654;2022-08-24T07:50:14;25.10;99.90
26336;DHT22;14047;50.936;4.654;2022-08-24T07:52:40;25.30;99.90
26336;DHT22;14047;50.936;4.654;2022-08-24T07:55:07;25.30;99.90
26336;DHT22;14047;50.936;4.654;2022-08-24T07:57:34;25.50;99.90
26336;DHT22;14047;50.936;4.654;2022-08-24T08:00:01;25.60;99.90
26336;DHT22;14047;50.936;4.654;2022-08-24T08:02:27;25.60;99.90
26336;DHT22;14047;50.936;4.654;2022-08-24T08:04:56;25.60;99.90
26336;DHT22;14047;50.936;4.654;2022-08-24T08:07:21;25.70;99.90
26336;DHT22;14047;50.936;4.654;2022-08-24T08:09:47;25.90;99.90
26336;DHT22;14047;50.936;4.654;2022-08-24T08:12:14;26.10;99.90
26336;DHT22;14047;50.936;4.654;2022-08-24T08:14:39;26.30;99.90
26336;DHT22;14047;50.936;4.654;2022-08-24T08:17:05;26.10;99.90
26336;DHT22;14047;50.936;4.654;2022-08-24T08:19:32;26.10;99.90
26336;DHT22;14047;50.936;4.654;2022-08-24T08:21:58;26.20;99.90
26336;DHT22;14047;50.936;4.654;2022-08-24T08:24:42;26.20;99.90
26336;DHT22;14047;50.936;4.654;2022-08-24T08:27:10;26.30;99.90
26336;DHT22;14047;50.936;4.654;2022-08-24T08:29:37;26.60;99.90
26336;DHT22;14047;50.936;4.654;2022-08-24T08:32:08;26.70;99.90
26336;DHT22;14047;50.936;4.654;2022-08-24T08:34:34;26.50;99.90
26336;DHT22;14047;50.936;4.654;2022-08-24T08:37:00;26.60;99.90
26336;DHT22;14047;50.936;4.654;2022-08-24T08:39:27;26.80;99.90
26336;DHT22;14047;50.936;4.654;2022-08-24T08:50:37;27.70;99.90
26336;DHT22;14047;50.936;4.654;2022-08-24T08:53:16;27.90;99.90
26336;DHT22;14047;50.936;4.654;2022-08-24T08:59:16;28.40;99.90
26336;DHT22;14047;50.936;4.654;2022-08-24T09:13:40;28.70;99.90
26336;DHT22;14047;50.936;4.654;2022-08-24T09:22:08;28.80;99.90
26336;DHT22;14047;50.936;4.654;2022-08-24T09:32:57;29.10;99.90
26336;DHT22;14047;50.936;4.654;2022-08-24T09:41:16;28.90;99.90
26336;DHT22;14047;50.936;4.654;2022-08-24T09:49:59;28.80;99.90
26336;DHT22;14047;50.936;4.654;2022-08-24T09:55:27;29.00;99.90
26336;DHT22;14047;50.936;4.654;2022-08-24T09:58:12;29.30;99.90
26336;DHT22;14047;50.936;4.654;2022-08-24T10:01:14;29.20;99.90
26336;DHT22;14047;50.936;4.654;2022-08-24T10:11:49;29.50;99.90
26336;DHT22;14047;50.936;4.654;2022-08-24T10:20:21;30.00;99.90
26336;DHT22;14047;50.936;4.654;2022-08-24T10:39:22;30.00;99.90
26336;DHT22;14047;50.936;4.654;2022-08-24T10:53:48;29.90;99.90
26336;DHT22;14047;50.936;4.654;2022-08-24T10:56:35;30.30;99.90
26336;DHT22;14047;50.936;4.654;2022-08-24T11:02:05;29.80;99.90
26336;DHT22;14047;50.936;4.654;2022-08-24T11:04:33;29.90;99.90
26336;DHT22;14047;50.936;4.654;2022-08-24T11:07:20;29.90;99.90
26336;DHT22;14047;50.936;4.654;2022-08-24T11:09:47;29.80;99.90
26336;DHT22;14047;50.936;4.654;2022-08-24T11:12:44;29.60;99.90
26336;DHT22;14047;50.936;4.654;2022-08-24T11:15:25;29.60;99.90
26336;DHT22;14047;50.936;4.654;2022-08-24T11:17:57;30.00;99.90
26336;DHT22;14047;50.936;4.654;2022-08-24T11:20:54;30.40;99.90
26336;DHT22;14047;50.936;4.654;2022-08-24T11:23:23;30.80;99.90
26336;DHT22;14047;50.936;4.654;2022-08-24T11:31:04;31.60;99.90
26336;DHT22;14047;50.936;4.654;2022-08-24T11:33:44;31.80;99.90
26336;DHT22;14047;50.936;4.654;2022-08-24T11:36:19;31.60;99.90
26336;DHT22;14047;50.936;4.654;2022-08-24T11:38:45;31.50;99.90
26336;DHT22;14047;50.936;4.654;2022-08-24T11:41:32;30.50;99.90
26336;DHT22;14047;50.936;4.654;2022-08-24T11:44:14;30.50;99.90
26336;DHT22;14047;50.936;4.654;2022-08-24T11:52:28;31.10;99.90
26336;DHT22;14047;50.936;4.654;2022-08-24T11:55:02;31.50;99.90
26336;DHT22;14047;50.936;4.654;2022-08-24T11:57:55;30.90;99.90
26336;DHT22;14047;50.936;4.654;2022-08-24T12:00:25;30.80;99.90
26336;DHT22;14047;50.936;4.654;2022-08-24T12:03:00;30.70;99.90
26336;DHT22;14047;50.936;4.654;2022-08-24T12:05:38;30.70;99.90
26336;DHT22;14047;50.936;4.654;2022-08-24T12:13:44;30.80;99.90
26336;DHT22;14047;50.936;4.654;2022-08-24T12:16:57;30.50;99.90
26336;DHT22;14047;50.936;4.654;2022-08-24T12:19:28;30.40;99.90
26336;DHT22;14047;50.936;4.654;2022-08-24T12:21:58;30.70;99.90
26336;DHT22;14047;50.936;4.654;2022-08-24T12:25:00;31.00;99.90
26336;DHT22;14047;50.936;4.654;2022-08-24T12:27:31;31.60;99.90
26336;DHT22;14047;50.936;4.654;2022-08-24T12:30:00;32.20;99.90
26336;DHT22;14047;50.936;4.654;2022-08-24T12:32:34;32.40;99.90
26336;DHT22;14047;50.936;4.654;2022-08-24T12:35:14;32.50;99.90
26336;DHT22;14047;50.936;4.654;2022-08-24T12:43:22;32.80;99.90
26336;DHT22;14047;50.936;4.654;2022-08-24T12:45:50;32.50;99.90
26336;DHT22;14047;50.936;4.654;2022-08-24T12:48:40;31.60;99.90
26336;DHT22;14047;50.936;4.654;2022-08-24T12:59:50;33.00;99.90
26336;DHT22;14047;50.936;4.654;2022-08-24T13:10:07;34.00;99.90
26336;DHT22;14047;50.936;4.654;2022-08-24T13:17:55;34.80;99.70
26336;DHT22;14047;50.936;4.654;2022-08-24T13:28:26;34.50;98.60
26336;DHT22;14047;50.936;4.654;2022-08-24T13:43:05;33.40;99.90
26336;DHT22;14047;50.936;4.654;2022-08-24T13:53:15;33.10;99.90
26336;DHT22;14047;50.936;4.654;2022-08-24T13:56:10;32.90;99.90
26336;DHT22;14047;50.936;4.654;2022-08-24T13:59:16;33.40;99.90
26336;DHT22;14047;50.936;4.654;2022-08-24T14:05:07;34.70;98.50
26336;DHT22;14047;50.936;4.654;2022-08-24T14:16:24;35.60;97.10
26336;DHT22;14047;50.936;4.654;2022-08-24T14:19:21;35.60;96.90
26336;DHT22;14047;50.936;4.654;2022-08-24T14:24:39;36.00;95.60
26336;DHT22;14047;50.936;4.654;2022-08-24T14:27:09;36.00;95.40
26336;DHT22;14047;50.936;4.654;2022-08-24T14:29:38;36.20;95.10
26336;DHT22;14047;50.936;4.654;2022-08-24T14:37:30;36.70;94.00
26336;DHT22;14047;50.936;4.654;2022-08-24T15:00:19;35.60;94.90
26336;DHT22;14047;50.936;4.654;2022-08-24T15:07:58;35.70;94.10
26336;DHT22;14047;50.936;4.654;2022-08-24T15:10:28;36.50;93.10
26336;DHT22;14047;50.936;4.654;2022-08-24T15:13:00;36.20;93.20
26336;DHT22;14047;50.936;4.654;2022-08-24T15:15:42;36.20;94.90
26336;DHT22;14047;50.936;4.654;2022-08-24T15:23:51;34.70;95.50
26336;DHT22;14047;50.936;4.654;2022-08-24T15:26:54;34.20;96.20
26336;DHT22;14047;50.936;4.654;2022-08-24T15:29:26;33.60;97.20
26336;DHT22;14047;50.936;4.654;2022-08-24T15:34:37;33.20;99.20
26336;DHT22;14047;50.936;4.654;2022-08-24T15:37:04;33.10;99.50
26336;DHT22;14047;50.936;4.654;2022-08-24T15:39:30;32.60;99.90
26336;DHT22;14047;50.936;4.654;2022-08-24T15:41:56;32.70;99.90
26336;DHT22;14047;50.936;4.654;2022-08-24T15:44:25;32.40;99.90
26336;DHT22;14047;50.936;4.654;2022-08-24T15:46:59;32.40;99.90
26336;DHT22;14047;50.936;4.654;2022-08-24T15:58:11;31.60;99.90
26336;DHT22;14047;50.936;4.654;2022-08-24T16:00:37;31.50;99.90
26336;DHT22;14047;50.936;4.654;2022-08-24T16:03:41;31.50;99.90
26336;DHT22;14047;50.936;4.654;2022-08-24T16:09:07;31.90;99.90
26336;DHT22;14047;50.936;4.654;2022-08-24T16:11:43;31.90;99.90
26336;DHT22;14047;50.936;4.654;2022-08-24T16:14:33;31.70;99.90
26336;DHT22;14047;50.936;4.654;2022-08-24T16:17:16;31.60;99.90
26336;DHT22;14047;50.936;4.654;2022-08-24T16:19:49;31.60;99.90
26336;DHT22;14047;50.936;4.654;2022-08-24T16:22:29;31.60;99.90
26336;DHT22;14047;50.936;4.654;2022-08-24T16:35:57;33.40;99.90
26336;DHT22;14047;50.936;4.654;2022-08-24T16:38:27;33.40;99.90
26336;DHT22;14047;50.936;4.654;2022-08-24T16:40:56;33.00;99.90
26336;DHT22;14047;50.936;4.654;2022-08-24T16:43:22;33.00;99.90
26336;DHT22;14047;50.936;4.654;2022-08-24T16:45:48;33.10;99.90
26336;DHT22;14047;50.936;4.654;2022-08-24T16:48:14;33.70;99.90
26336;DHT22;14047;50.936;4.654;2022-08-24T16:50:40;34.20;99.90
26336;DHT22;14047;50.936;4.654;2022-08-24T16:53:06;35.00;99.90
26336;DHT22;14047;50.936;4.654;2022-08-24T16:55:31;35.50;99.90
26336;DHT22;14047;50.936;4.654;2022-08-24T16:57:57;35.70;98.30
26336;DHT22;14047;50.936;4.654;2022-08-24T17:00:25;36.40;97.60
26336;DHT22;14047;50.936;4.654;2022-08-24T17:02:51;36.70;95.80
26336;DHT22;14047;50.936;4.654;2022-08-24T17:05:17;36.80;96.20
26336;DHT22;14047;50.936;4.654;2022-08-24T17:07:43;36.40;96.90
26336;DHT22;14047;50.936;4.654;2022-08-24T17:10:12;35.80;97.00
26336;DHT22;14047;50.936;4.654;2022-08-24T17:12:38;35.80;96.50
26336;DHT22;14047;50.936;4.654;2022-08-24T17:15:05;35.30;97.20
26336;DHT22;14047;50.936;4.654;2022-08-24T17:17:32;35.50;96.70
26336;DHT22;14047;50.936;4.654;2022-08-24T17:19:58;35.40;96.60
26336;DHT22;14047;50.936;4.654;2022-08-24T17:22:24;34.80;98.00
26336;DHT22;14047;50.936;4.654;2022-08-24T17:24:51;34.70;98.30
26336;DHT22;14047;50.936;4.654;2022-08-24T17:27:20;34.60;98.80
26336;DHT22;14047;50.936;4.654;2022-08-24T17:29:48;34.50;98.80
26336;DHT22;14047;50.936;4.654;2022-08-24T17:32:14;34.90;98.50
26336;DHT22;14047;50.936;4.654;2022-08-24T17:34:41;34.20;99.10
26336;DHT22;14047;50.936;4.654;2022-08-24T17:37:07;33.60;99.90
26336;DHT22;14047;50.936;4.654;2022-08-24T17:39:34;33.80;99.90
26336;DHT22;14047;50.936;4.654;2022-08-24T17:41:59;33.80;99.90
26336;DHT22;14047;50.936;4.654;2022-08-24T17:44:29;33.70;99.90
26336;DHT22;14047;50.936;4.654;2022-08-24T17:46:58;33.40;99.90
26336;DHT22;14047;50.936;4.654;2022-08-24T17:49:26;33.50;99.90
26336;DHT22;14047;50.936;4.654;2022-08-24T17:51:52;33.60;99.90
26336;DHT22;14047;50.936;4.654;2022-08-24T17:54:19;33.40;99.90
26336;DHT22;14047;50.936;4.654;2022-08-24T17:56:46;32.70;99.90
26336;DHT22;14047;50.936;4.654;2022-08-24T17:59:15;32.40;99.90
26336;DHT22;14047;50.936;4.654;2022-08-24T18:01:48;31.90;99.90
26336;DHT22;14047;50.936;4.654;2022-08-24T18:04:15;31.70;99.90
26336;DHT22;14047;50.936;4.654;2022-08-24T18:06:42;31.50;99.90
26336;DHT22;14047;50.936;4.654;2022-08-24T18:09:56;31.20;99.90
26336;DHT22;14047;50.936;4.654;2022-08-24T18:12:02;31.10;99.90
26336;DHT22;14047;50.936;4.654;2022-08-24T18:14:29;31.00;99.90
26336;DHT22;14047;50.936;4.654;2022-08-24T18:16:57;31.10;99.90
26336;DHT22;14047;50.936;4.654;2022-08-24T18:19:23;31.20;99.90
26336;DHT22;14047;50.936;4.654;2022-08-24T18:21:50;31.00;99.90
26336;DHT22;14047;50.936;4.654;2022-08-24T18:24:15;30.70;99.90
26336;DHT22;14047;50.936;4.654;2022-08-24T18:26:41;30.60;99.90
26336;DHT22;14047;50.936;4.654;2022-08-24T18:29:18;30.40;99.90
26336;DHT22;14047;50.936;4.654;2022-08-24T18:31:46;30.40;99.90
26336;DHT22;14047;50.936;4.654;2022-08-24T18:34:18;30.20;99.90
26336;DHT22;14047;50.936;4.654;2022-08-24T18:36:45;30.10;99.90
26336;DHT22;14047;50.936;4.654;2022-08-24T18:39:11;29.90;99.90
26336;DHT22;14047;50.936;4.654;2022-08-24T18:41:38;29.70;99.90
26336;DHT22;14047;50.936;4.654;2022-08-24T18:44:06;29.60;99.90
26336;DHT22;14047;50.936;4.654;2022-08-24T18:46:34;29.50;99.90
26336;DHT22;14047;50.936;4.654;2022-08-24T18:49:00;29.50;99.90
26336;DHT22;14047;50.936;4.654;2022-08-24T18:51:28;29.50;99.90
26336;DHT22;14047;50.936;4.654;2022-08-24T18:54:02;29.40;99.90
26336;DHT22;14047;50.936;4.654;2022-08-24T18:56:28;29.30;99.90
26336;DHT22;14047;50.936;4.654;2022-08-24T18:58:54;29.30;99.90
26336;DHT22;14047;50.936;4.654;2022-08-24T19:01:21;29.10;99.90
26336;DHT22;14047;50.936;4.654;2022-08-24T19:03:47;29.00;99.90
26336;DHT22;14047;50.936;4.654;2022-08-24T19:06:12;28.80;99.90
26336;DHT22;14047;50.936;4.654;2022-08-24T19:08:38;28.60;99.90
26336;DHT22;14047;50.936;4.654;2022-08-24T19:11:05;28.30;99.90
26336;DHT22;14047;50.936;4.654;2022-08-24T19:13:32;27.90;99.90
26336;DHT22;14047;50.936;4.654;2022-08-24T19:15:58;27.60;99.90
26336;DHT22;14047;50.936;4.654;2022-08-24T19:18:23;27.60;99.90
26336;DHT22;14047;50.936;4.654;2022-08-24T19:20:52;27.50;99.90
26336;DHT22;14047;50.936;4.654;2022-08-24T19:23:22;27.70;99.90
26336;DHT22;14047;50.936;4.654;2022-08-24T19:25:49;27.70;99.90
26336;DHT22;14047;50.936;4.654;2022-08-24T19:28:15;27.60;99.90
26336;DHT22;14047;50.936;4.654;2022-08-24T19:30:41;27.50;99.90
26336;DHT22;14047;50.936;4.654;2022-08-24T19:33:10;27.30;99.90
26336;DHT22;14047;50.936;4.654;2022-08-24T19:35:36;27.30;99.90
26336;DHT22;14047;50.936;4.654;2022-08-24T19:38:02;27.30;99.90
26336;DHT22;14047;50.936;4.654;2022-08-24T19:40:28;27.40;99.90
26336;DHT22;14047;50.936;4.654;2022-08-24T19:42:54;27.40;99.90
26336;DHT22;14047;50.936;4.654;2022-08-24T19:45:23;27.40;99.90
26336;DHT22;14047;50.936;4.654;2022-08-24T19:48:08;27.30;99.90
26336;DHT22;14047;50.936;4.654;2022-08-24T19:50:34;27.40;99.90
26336;DHT22;14047;50.936;4.654;2022-08-24T19:53:00;27.30;99.90